createdAt,value
2022-10-12T00:01:07.200Z,100.00
2022-10-12T00:03:54.837Z,100.00
2022-10-12T00:06:40.456Z,100.00
2022-10-12T00:09:25.951Z,100.00
2022-10-12T00:12:11.397Z,100.00
2022-10-12T00:14:57.480Z,100.00
2022-10-12T00:17:43.669Z,100.00
2022-10-12T00:20:31.954Z,100.00
2022-10-12T00:23:17.341Z,100.00
2022-10-12T00:26:23.494Z,100.00
2022-10-12T00:29:09.576Z,100.00
2022-10-12T00:31:55.557Z,100.00
2022-10-12T00:34:41.239Z,100.00
2022-10-12T00:37:26.743Z,100.00
2022-10-12T00:40:12.524Z,100.00
2022-10-12T00:42:58.729Z,100.00
2022-10-12T00:45:44.560Z,100.00
2022-10-12T00:48:31.352Z,100.00
2022-10-12T00:51:19.875Z,100.00
2022-10-12T00:54:09.829Z,100.00
2022-10-12T00:56:57.515Z,100.00
2022-10-12T00:59:55.014Z,100.00
2022-10-12T01:02:42.728Z,100.00
2022-10-12T01:05:28.502Z,100.00
2022-10-12T01:08:13.961Z,100.00
2022-10-12T01:10:59.387Z,100.00
2022-10-12T01:13:45.265Z,100.00
2022-10-12T01:16:41.465Z,100.00
2022-10-12T01:20:01.861Z,100.00
2022-10-12T01:23:15.940Z,100.00
2022-10-12T01:26:17.415Z,100.00
2022-10-12T01:29:38.935Z,100.00
2022-10-12T01:32:56.628Z,100.00
2022-10-12T01:36:03.522Z,100.00
2022-10-12T01:39:04.589Z,100.00
2022-10-12T01:42:00.772Z,100.00
2022-10-12T01:44:46.660Z,100.00
2022-10-12T01:47:33.443Z,100.00
2022-10-12T01:50:21.892Z,100.00
2022-10-12T01:53:35.444Z,100.00
2022-10-12T01:56:33.413Z,100.00
2022-10-12T01:59:31.119Z,100.00
2022-10-12T02:02:34.937Z,100.00
2022-10-12T02:05:43.522Z,100.00
2022-10-12T02:08:35.815Z,100.00
2022-10-12T02:11:26.744Z,100.00
2022-10-12T02:14:22.810Z,100.00
2022-10-12T02:17:12.935Z,100.00
2022-10-12T02:20:01.538Z,100.00
2022-10-12T02:22:50.297Z,100.00
2022-10-12T02:25:35.818Z,100.00
2022-10-12T02:28:26.453Z,100.00
2022-10-12T02:31:14.980Z,100.00
2022-10-12T02:34:12.414Z,100.00
2022-10-12T02:37:10.917Z,100.00
2022-10-12T02:40:07.851Z,100.00
2022-10-12T02:43:10.005Z,100.00
2022-10-12T02:46:00.699Z,100.00
2022-10-12T02:48:49.139Z,100.00
2022-10-12T02:51:36.542Z,100.00
2022-10-12T02:54:22.152Z,100.00
2022-10-12T02:57:07.742Z,100.00
2022-10-12T02:59:53.337Z,100.00
2022-10-12T03:02:38.952Z,100.00
2022-10-12T03:05:24.504Z,100.00
2022-10-12T03:08:10.247Z,100.00
2022-10-12T03:11:02.384Z,100.00
2022-10-12T03:13:47.861Z,100.00
2022-10-12T03:16:33.164Z,100.00
2022-10-12T03:19:18.717Z,100.00
2022-10-12T03:22:04.100Z,100.00
2022-10-12T03:24:49.742Z,100.00
2022-10-12T03:27:35.880Z,100.00
2022-10-12T03:30:21.668Z,100.00
2022-10-12T03:33:06.973Z,100.00
2022-10-12T03:35:52.533Z,100.00
2022-10-12T03:38:37.937Z,100.00
2022-10-12T03:41:23.689Z,100.00
2022-10-12T03:44:09.323Z,100.00
2022-10-12T03:46:54.798Z,100.00
2022-10-12T03:52:22.391Z,100.00
2022-10-12T03:55:08.378Z,100.00
2022-10-12T03:57:54.002Z,100.00
2022-10-12T04:00:39.352Z,100.00
2022-10-12T04:03:24.566Z,100.00
2022-10-12T04:06:10.256Z,100.00
2022-10-12T04:08:55.710Z,100.00
2022-10-12T04:11:41.396Z,100.00
2022-10-12T04:14:26.989Z,100.00
2022-10-12T04:17:14.700Z,100.00
2022-10-12T04:20:00.104Z,100.00
2022-10-12T04:22:45.424Z,100.00
2022-10-12T04:25:30.825Z,100.00
2022-10-12T04:28:16.131Z,100.00
2022-10-12T04:31:01.917Z,100.00
2022-10-12T04:33:47.687Z,100.00
2022-10-12T04:36:33.003Z,100.00
2022-10-12T04:39:18.737Z,100.00
2022-10-12T04:42:06.714Z,100.00
2022-10-12T04:44:52.041Z,100.00
2022-10-12T04:47:38.265Z,100.00
2022-10-12T04:50:29.020Z,100.00
2022-10-12T04:53:15.323Z,100.00
2022-10-12T04:56:05.854Z,100.00
2022-10-12T04:58:51.216Z,100.00
2022-10-12T05:01:36.713Z,100.00
2022-10-12T05:04:22.225Z,100.00
2022-10-12T05:07:07.747Z,100.00
2022-10-12T05:09:53.623Z,100.00
2022-10-12T05:12:39.425Z,100.00
2022-10-12T05:15:25.135Z,100.00
2022-10-12T05:18:11.069Z,100.00
2022-10-12T05:20:57.286Z,100.00
2022-10-12T05:23:42.719Z,100.00
2022-10-12T05:26:28.300Z,100.00
2022-10-12T05:29:13.865Z,100.00
2022-10-12T05:31:59.150Z,100.00
2022-10-12T05:34:44.843Z,100.00
2022-10-12T05:37:30.117Z,100.00
2022-10-12T05:40:15.638Z,100.00
2022-10-12T05:43:01.151Z,100.00
2022-10-12T05:45:46.610Z,100.00
2022-10-12T05:48:33.223Z,100.00
2022-10-12T05:51:18.684Z,100.00
2022-10-12T05:54:04.593Z,100.00
2022-10-12T05:56:50.075Z,100.00
2022-10-12T05:59:36.475Z,100.00
2022-10-12T06:02:22.178Z,100.00
2022-10-12T06:05:07.615Z,100.00
2022-10-12T06:07:52.926Z,100.00
2022-10-12T06:13:35.067Z,100.00
2022-10-12T06:16:20.725Z,100.00
2022-10-12T06:19:05.944Z,100.00
2022-10-12T06:21:51.221Z,100.00
2022-10-12T06:24:37.457Z,100.00
2022-10-12T06:27:22.777Z,100.00
2022-10-12T06:30:08.607Z,100.00
2022-10-12T06:32:54.319Z,100.00
2022-10-12T06:35:39.931Z,100.00
2022-10-12T06:38:25.306Z,100.00
2022-10-12T06:41:10.915Z,100.00
2022-10-12T06:43:56.657Z,100.00
2022-10-12T06:46:42.297Z,100.00
2022-10-12T06:49:27.712Z,100.00
2022-10-12T06:52:12.998Z,100.00
2022-10-12T06:54:58.593Z,100.00
2022-10-12T06:57:44.399Z,97.93
2022-10-12T07:00:29.621Z,93.14
2022-10-12T07:03:15.029Z,91.02
2022-10-12T07:06:08.869Z,87.60
2022-10-12T07:08:55.239Z,85.88
2022-10-12T07:11:40.889Z,83.46
2022-10-12T07:14:26.253Z,82.02
2022-10-12T07:17:11.808Z,80.89
2022-10-12T07:19:57.302Z,79.41
2022-10-12T07:22:44.409Z,77.08
2022-10-12T07:25:30.469Z,76.63
2022-10-12T07:28:17.519Z,75.76
2022-10-12T07:31:07.751Z,74.07
2022-10-12T07:33:54.069Z,71.04
2022-10-12T07:36:57.974Z,68.51
2022-10-12T07:39:44.621Z,66.41
2022-10-12T07:42:30.024Z,67.80
2022-10-12T07:45:15.446Z,66.39
2022-10-12T07:48:00.815Z,69.32
2022-10-12T07:50:46.232Z,74.19
2022-10-12T07:53:33.816Z,74.01
2022-10-12T07:56:19.147Z,67.54
2022-10-12T07:59:04.749Z,65.59
2022-10-12T08:01:50.273Z,67.68
2022-10-12T08:04:35.807Z,64.66
2022-10-12T08:07:21.420Z,57.93
2022-10-12T08:10:07.367Z,54.99
2022-10-12T08:12:52.845Z,53.15
2022-10-12T08:15:38.202Z,50.81
2022-10-12T08:18:23.713Z,50.08
2022-10-12T08:21:11.371Z,49.95
2022-10-12T08:23:56.643Z,53.73
2022-10-12T08:26:41.962Z,51.10
2022-10-12T08:29:27.478Z,50.39
2022-10-12T08:32:13.225Z,47.75
2022-10-12T08:34:58.869Z,50.75
2022-10-12T08:37:44.090Z,48.06
2022-10-12T08:40:32.607Z,46.80
2022-10-12T08:43:48.032Z,47.24
2022-10-12T08:46:33.929Z,45.57
2022-10-12T08:49:24.940Z,45.43
2022-10-12T08:52:28.413Z,45.64
2022-10-12T08:55:35.452Z,46.00
2022-10-12T08:58:30.293Z,47.57
2022-10-12T09:01:18.411Z,46.68
2022-10-12T09:04:37.199Z,44.09
2022-10-12T09:07:51.307Z,40.95
2022-10-12T09:10:49.695Z,39.19
2022-10-12T09:13:46.769Z,41.01
2022-10-12T09:16:35.632Z,39.09
2022-10-12T09:19:27.955Z,37.73
2022-10-12T09:22:19.772Z,37.78
2022-10-12T09:25:13.858Z,37.76
2022-10-12T09:28:14.066Z,36.87
2022-10-12T09:31:50.072Z,37.33
2022-10-12T09:34:35.913Z,37.40
2022-10-12T09:37:25.049Z,37.93
2022-10-12T09:40:20.207Z,36.65
2022-10-12T09:43:05.732Z,35.41
2022-10-12T09:45:51.690Z,36.17
2022-10-12T09:48:37.214Z,35.10
2022-10-12T09:51:23.176Z,35.52
2022-10-12T09:54:18.186Z,33.93
2022-10-12T09:57:03.835Z,35.01
2022-10-12T09:59:50.118Z,36.47
2022-10-12T10:02:47.920Z,36.19
2022-10-12T10:05:35.821Z,35.56
2022-10-12T10:08:23.544Z,35.79
2022-10-12T10:11:38.277Z,35.21
2022-10-12T10:14:24.171Z,36.30
2022-10-12T10:17:15.921Z,36.45
2022-10-12T10:20:05.275Z,36.99
2022-10-12T10:22:52.091Z,35.45
2022-10-12T10:25:37.907Z,35.40
2022-10-12T10:28:27.724Z,37.57
2022-10-12T10:31:13.315Z,35.44
2022-10-12T10:34:10.950Z,33.71
2022-10-12T10:36:56.828Z,33.86
2022-10-12T10:39:48.756Z,36.93
2022-10-12T10:42:34.862Z,34.23
2022-10-12T10:45:29.317Z,33.95
2022-10-12T10:48:21.251Z,33.36
2022-10-12T10:51:07.331Z,31.89
2022-10-12T10:53:52.974Z,31.23
2022-10-12T10:56:38.471Z,33.06
2022-10-12T10:59:26.469Z,32.11
2022-10-12T11:02:25.267Z,31.54
2022-10-12T11:05:16.674Z,31.40
2022-10-12T11:08:15.529Z,32.24
2022-10-12T11:11:05.872Z,31.75
2022-10-12T11:14:19.026Z,30.87
2022-10-12T11:17:12.300Z,32.21
2022-10-12T11:20:22.171Z,31.83
2022-10-12T11:23:41.471Z,30.80
2022-10-12T11:26:36.010Z,31.37
2022-10-12T11:29:21.432Z,30.36
2022-10-12T11:32:31.291Z,31.55
2022-10-12T11:35:25.688Z,30.41
2022-10-12T11:38:23.423Z,30.42
2022-10-12T11:44:37.279Z,33.26
2022-10-12T11:47:39.144Z,30.45
2022-10-12T11:50:35.389Z,30.47
2022-10-12T11:53:27.252Z,32.69
2022-10-12T11:56:15.644Z,31.10
2022-10-12T11:59:24.830Z,32.39
2022-10-12T12:02:13.307Z,30.78
2022-10-12T12:04:59.056Z,30.91
2022-10-12T12:07:53.768Z,31.47
2022-10-12T12:11:03.679Z,30.64
2022-10-12T12:13:49.022Z,35.54
2022-10-12T12:16:42.946Z,35.04
2022-10-12T12:19:37.360Z,35.39
2022-10-12T12:22:30.465Z,37.64
2022-10-12T12:25:26.030Z,37.37
2022-10-12T12:28:21.697Z,40.48
2022-10-12T12:31:13.389Z,39.49
2022-10-12T12:34:06.819Z,40.11
2022-10-12T12:36:53.235Z,33.95
2022-10-12T12:39:40.948Z,33.88
2022-10-12T12:42:32.117Z,32.03
2022-10-12T12:45:32.551Z,32.87
2022-10-12T12:48:40.797Z,33.83
2022-10-12T12:51:37.426Z,32.81
2022-10-12T12:54:22.921Z,32.02
2022-10-12T12:57:48.952Z,32.16
2022-10-12T13:04:08.878Z,30.54
2022-10-12T13:07:39.295Z,31.07
2022-10-12T13:10:48.151Z,32.15
2022-10-12T13:13:58.088Z,31.46
2022-10-12T13:20:24.986Z,30.82
2022-10-12T13:23:17.760Z,30.92
2022-10-12T13:26:08.182Z,31.35
2022-10-12T13:28:55.532Z,32.39
2022-10-12T13:31:46.550Z,32.77
2022-10-12T13:34:41.409Z,32.83
2022-10-12T13:37:31.351Z,32.72
2022-10-12T13:40:37.916Z,32.73
2022-10-12T13:43:29.762Z,32.48
2022-10-12T13:46:42.520Z,33.38
2022-10-12T13:49:30.028Z,33.53
2022-10-12T13:52:15.358Z,33.40
2022-10-12T13:55:01.607Z,32.14
2022-10-12T13:57:49.978Z,32.70
2022-10-12T14:00:36.104Z,32.85
2022-10-12T14:03:27.256Z,31.71
2022-10-12T14:06:32.233Z,33.47
2022-10-12T14:09:21.569Z,33.87
2022-10-12T14:12:08.472Z,34.03
2022-10-12T14:14:54.346Z,34.11
2022-10-12T14:17:47.216Z,34.22
2022-10-12T14:20:38.458Z,35.27
2022-10-12T14:23:24.948Z,33.66
2022-10-12T14:26:23.883Z,34.30
2022-10-12T14:29:33.071Z,35.92
2022-10-12T14:32:26.293Z,35.54
2022-10-12T14:35:30.232Z,34.57
2022-10-12T14:38:43.847Z,35.35
2022-10-12T14:41:49.024Z,35.75
2022-10-12T14:44:43.075Z,35.93
2022-10-12T14:47:34.667Z,36.06
2022-10-12T14:50:22.137Z,36.15
2022-10-12T14:53:11.544Z,36.04
2022-10-12T14:55:57.091Z,36.75
2022-10-12T14:58:42.508Z,38.68
2022-10-12T15:01:27.976Z,41.75
2022-10-12T15:04:13.765Z,45.95
2022-10-12T15:06:59.162Z,48.20
2022-10-12T15:09:44.844Z,50.37
2022-10-12T15:12:30.853Z,50.50
2022-10-12T15:15:36.218Z,52.43
2022-10-12T15:18:21.689Z,52.69
2022-10-12T15:21:08.793Z,53.25
2022-10-12T15:23:54.084Z,54.36
2022-10-12T15:26:42.298Z,54.71
2022-10-12T15:29:27.899Z,54.77
2022-10-12T15:32:15.141Z,55.30
2022-10-12T15:35:01.242Z,55.41
2022-10-12T15:37:47.212Z,56.29
2022-10-12T15:40:34.241Z,57.20
2022-10-12T15:43:20.412Z,58.03
2022-10-12T15:46:05.724Z,58.78
2022-10-12T15:48:51.028Z,59.10
2022-10-12T15:51:40.538Z,59.61
2022-10-12T15:54:26.037Z,60.48
2022-10-12T15:57:12.343Z,60.97
2022-10-12T15:59:57.893Z,61.45
2022-10-12T16:02:43.526Z,62.05
2022-10-12T16:05:32.506Z,62.92
2022-10-12T16:08:17.783Z,62.25
2022-10-12T16:11:08.709Z,62.96
2022-10-12T16:13:56.673Z,63.83
2022-10-12T16:16:42.295Z,64.95
2022-10-12T16:19:27.631Z,66.16
2022-10-12T16:22:13.320Z,66.21
2022-10-12T16:24:58.713Z,68.96
2022-10-12T16:27:46.003Z,69.95
2022-10-12T16:30:31.856Z,68.04
2022-10-12T16:33:18.137Z,68.42
2022-10-12T16:36:09.035Z,68.94
2022-10-12T16:38:55.319Z,69.90
2022-10-12T16:41:40.566Z,69.95
2022-10-12T16:44:26.457Z,70.83
2022-10-12T16:47:12.373Z,71.93
2022-10-12T16:49:57.857Z,73.32
2022-10-12T16:52:43.455Z,73.94
2022-10-12T16:55:29.109Z,74.71
2022-10-12T16:58:14.693Z,76.71
2022-10-12T17:01:11.730Z,75.79
2022-10-12T17:03:57.649Z,79.06
2022-10-12T17:06:43.319Z,80.47
2022-10-12T17:09:28.867Z,78.93
2022-10-12T17:12:14.851Z,81.09
2022-10-12T17:15:00.389Z,81.00
2022-10-12T17:17:45.788Z,81.97
2022-10-12T17:20:31.281Z,83.00
2022-10-12T17:23:16.880Z,84.45
2022-10-12T17:26:02.446Z,87.41
2022-10-12T17:28:47.856Z,87.53
2022-10-12T17:31:34.518Z,88.03
2022-10-12T17:34:23.490Z,88.35
2022-10-12T17:37:12.828Z,88.97
2022-10-12T17:39:58.463Z,88.70
2022-10-12T17:42:44.013Z,91.57
2022-10-12T17:45:29.430Z,91.20
2022-10-12T17:48:16.021Z,92.46
2022-10-12T17:51:09.347Z,93.83
2022-10-12T17:53:54.815Z,95.86
2022-10-12T17:56:40.682Z,97.58
2022-10-12T17:59:26.357Z,98.83
2022-10-12T18:02:11.738Z,97.80
2022-10-12T18:04:57.111Z,100.00
2022-10-12T18:07:42.565Z,100.00
2022-10-12T18:10:28.677Z,99.45
2022-10-12T18:13:14.750Z,98.78
2022-10-12T18:16:00.544Z,99.88
2022-10-12T18:18:50.429Z,100.00
2022-10-12T18:21:36.905Z,99.00
2022-10-12T18:24:23.283Z,98.28
2022-10-12T18:27:08.987Z,100.00
2022-10-12T18:29:56.114Z,100.00
2022-10-12T18:32:41.489Z,100.00
2022-10-12T18:35:30.335Z,100.00
2022-10-12T18:38:15.972Z,100.00
2022-10-12T18:41:03.390Z,100.00
2022-10-12T18:43:49.780Z,100.00
2022-10-12T18:46:37.337Z,100.00
2022-10-12T18:49:23.256Z,100.00
2022-10-12T18:52:09.225Z,100.00
2022-10-12T18:54:54.721Z,100.00
2022-10-12T18:57:40.270Z,100.00
2022-10-12T19:00:26.028Z,100.00
2022-10-12T19:03:12.835Z,100.00
2022-10-12T19:06:06.936Z,100.00
2022-10-12T19:08:53.976Z,100.00
2022-10-12T19:11:39.415Z,100.00
2022-10-12T19:14:24.831Z,100.00
2022-10-12T19:17:10.144Z,100.00
2022-10-12T19:19:55.839Z,100.00
2022-10-12T19:22:41.492Z,100.00
2022-10-12T19:25:26.977Z,100.00
2022-10-12T19:28:12.758Z,100.00
2022-10-12T19:30:58.734Z,100.00
2022-10-12T19:33:44.261Z,100.00
2022-10-12T19:36:30.894Z,100.00
2022-10-12T19:39:19.682Z,100.00
2022-10-12T19:42:04.873Z,100.00
2022-10-12T19:44:50.497Z,100.00
2022-10-12T19:47:36.063Z,100.00
2022-10-12T19:50:21.586Z,100.00
2022-10-12T19:53:07.395Z,100.00
2022-10-12T19:55:57.890Z,100.00
2022-10-12T19:58:45.355Z,100.00
2022-10-12T20:01:34.712Z,100.00
2022-10-12T20:04:20.336Z,100.00
2022-10-12T20:07:05.714Z,100.00
2022-10-12T20:09:51.065Z,100.00
2022-10-12T20:12:36.719Z,100.00
2022-10-12T20:15:22.234Z,100.00
2022-10-12T20:18:07.810Z,100.00
2022-10-12T20:20:54.140Z,100.00
2022-10-12T20:23:41.442Z,100.00
2022-10-12T20:26:26.940Z,100.00
2022-10-12T20:29:12.282Z,100.00
2022-10-12T20:31:57.520Z,100.00
2022-10-12T20:34:42.845Z,100.00
2022-10-12T20:37:28.725Z,100.00
2022-10-12T20:40:14.138Z,100.00
2022-10-12T20:42:59.550Z,100.00
2022-10-12T20:45:45.129Z,100.00
2022-10-12T20:48:31.749Z,100.00
2022-10-12T20:51:23.674Z,100.00
2022-10-12T20:54:14.629Z,100.00
2022-10-12T20:57:00.355Z,100.00
2022-10-12T20:59:48.778Z,100.00
2022-10-12T21:02:34.305Z,100.00
2022-10-12T21:05:19.579Z,100.00
2022-10-12T21:08:05.005Z,100.00
2022-10-12T21:10:50.419Z,100.00
2022-10-12T21:13:41.482Z,100.00
2022-10-12T21:16:27.299Z,100.00
2022-10-12T21:19:15.225Z,100.00
2022-10-12T21:22:00.564Z,100.00
2022-10-12T21:24:46.300Z,100.00
2022-10-12T21:27:32.009Z,100.00
2022-10-12T21:30:17.700Z,100.00
2022-10-12T21:33:03.142Z,100.00
2022-10-12T21:35:48.656Z,100.00
2022-10-12T21:38:34.423Z,100.00
2022-10-12T21:41:22.220Z,100.00
2022-10-12T21:44:08.415Z,100.00
2022-10-12T21:46:53.868Z,100.00
2022-10-12T21:49:39.243Z,100.00
2022-10-12T21:52:24.860Z,100.00
2022-10-12T21:55:11.873Z,100.00
2022-10-12T21:57:57.251Z,100.00
2022-10-12T22:00:42.776Z,100.00
2022-10-12T22:03:28.262Z,100.00
2022-10-12T22:06:19.671Z,100.00
2022-10-12T22:09:07.864Z,100.00
2022-10-12T22:11:53.834Z,100.00
2022-10-12T22:14:39.593Z,100.00
2022-10-12T22:17:25.262Z,100.00
2022-10-12T22:20:10.967Z,100.00
2022-10-12T22:22:56.594Z,100.00
2022-10-12T22:25:42.187Z,100.00
2022-10-12T22:28:27.699Z,100.00
2022-10-12T22:31:15.423Z,100.00
2022-10-12T22:34:01.155Z,100.00
2022-10-12T22:36:46.580Z,100.00
2022-10-12T22:39:31.721Z,100.00
2022-10-12T22:42:17.533Z,100.00
2022-10-12T22:45:03.555Z,100.00
2022-10-12T22:47:48.945Z,100.00
2022-10-12T22:50:34.677Z,100.00
2022-10-12T22:53:21.339Z,100.00
2022-10-12T22:56:13.296Z,100.00
2022-10-12T22:59:03.829Z,100.00
2022-10-12T23:01:49.376Z,100.00
2022-10-12T23:04:35.102Z,100.00
2022-10-12T23:07:20.564Z,100.00
2022-10-12T23:10:06.623Z,100.00
2022-10-12T23:12:51.996Z,100.00
2022-10-12T23:15:37.573Z,100.00
2022-10-12T23:18:23.174Z,100.00
2022-10-12T23:21:11.981Z,100.00
2022-10-12T23:23:58.851Z,100.00
2022-10-12T23:26:44.328Z,100.00
2022-10-12T23:29:30.470Z,100.00
2022-10-12T23:32:16.204Z,100.00
2022-10-12T23:35:01.756Z,100.00
2022-10-12T23:37:47.445Z,100.00
2022-10-12T23:40:35.879Z,100.00
2022-10-12T23:43:21.718Z,100.00
2022-10-12T23:46:07.704Z,100.00
2022-10-12T23:48:53.292Z,100.00
2022-10-12T23:51:38.916Z,100.00
2022-10-12T23:54:24.313Z,100.00
2022-10-12T23:57:28.191Z,100.00
